sensor_id;sensor_type;location;lat;lon;timestamp;pressure;altitude;pressure_sealevel;temperature;humidity
75036;BME280;64247;51.540;5.854;2023-06-14T00:01:08;101099.53;;;14.08;75.98
75036;BME280;64247;51.540;5.854;2023-06-14T00:03:10;101100.22;;;14.05;75.50
75036;BME280;64247;51.540;5.854;2023-06-14T00:05:12;101101.81;;;14.06;76.24
75036;BME280;64247;51.540;5.854;2023-06-14T00:07:13;101106.00;;;14.00;75.79
75036;BME280;64247;51.540;5.854;2023-06-14T00:09:17;101098.44;;;13.93;75.79
75036;BME280;64247;51.540;5.854;2023-06-14T00:11:18;101100.63;;;13.88;75.52
75036;BME280;64247;51.540;5.854;2023-06-14T00:13:19;101101.63;;;13.80;75.26
75036;BME280;64247;51.540;5.854;2023-06-14T00:15:19;101102.28;;;13.73;75.51
75036;BME280;64247;51.540;5.854;2023-06-14T00:17:21;101106.53;;;13.70;76.58
75036;BME280;64247;51.540;5.854;2023-06-14T00:19:22;101106.84;;;13.69;76.73
75036;BME280;64247;51.540;5.854;2023-06-14T00:21:23;101108.88;;;13.72;77.47
75036;BME280;64247;51.540;5.854;2023-06-14T00:23:24;101115.47;;;13.71;77.17
75036;BME280;64247;51.540;5.854;2023-06-14T00:25:26;101113.38;;;13.64;76.53
75036;BME280;64247;51.540;5.854;2023-06-14T00:27:27;101107.50;;;13.62;77.15
75036;BME280;64247;51.540;5.854;2023-06-14T00:29:28;101108.19;;;13.59;76.58
75036;BME280;64247;51.540;5.854;2023-06-14T00:31:29;101111.22;;;13.54;75.82
75036;BME280;64247;51.540;5.854;2023-06-14T00:33:30;101111.47;;;13.49;75.56
75036;BME280;64247;51.540;5.854;2023-06-14T00:35:31;101122.28;;;13.45;75.33
75036;BME280;64247;51.540;5.854;2023-06-14T00:37:32;101116.06;;;13.44;75.30
75036;BME280;64247;51.540;5.854;2023-06-14T00:39:33;101117.63;;;13.45;75.22
75036;BME280;64247;51.540;5.854;2023-06-14T00:41:35;101119.91;;;13.43;74.95
75036;BME280;64247;51.540;5.854;2023-06-14T00:43:36;101116.34;;;13.39;74.48
75036;BME280;64247;51.540;5.854;2023-06-14T00:45:37;101115.41;;;13.35;74.20
75036;BME280;64247;51.540;5.854;2023-06-14T00:47:38;101115.00;;;13.33;74.41
75036;BME280;64247;51.540;5.854;2023-06-14T00:49:45;101117.72;;;13.33;73.87
75036;BME280;64247;51.540;5.854;2023-06-14T00:51:48;101120.44;;;13.33;73.85
75036;BME280;64247;51.540;5.854;2023-06-14T00:53:50;101121.59;;;13.32;73.66
75036;BME280;64247;51.540;5.854;2023-06-14T00:55:51;101120.09;;;13.35;74.95
75036;BME280;64247;51.540;5.854;2023-06-14T00:57:54;101122.28;;;13.45;76.64
75036;BME280;64247;51.540;5.854;2023-06-14T00:59:55;101114.56;;;13.47;76.68
75036;BME280;64247;51.540;5.854;2023-06-14T01:01:57;101123.53;;;13.48;76.93
75036;BME280;64247;51.540;5.854;2023-06-14T01:03:58;101121.78;;;13.39;76.13
75036;BME280;64247;51.540;5.854;2023-06-14T01:06:27;101123.06;;;13.29;76.03
75036;BME280;64247;51.540;5.854;2023-06-14T01:09:32;101127.56;;;13.22;76.30
75036;BME280;64247;51.540;5.854;2023-06-14T01:11:43;101126.69;;;13.18;75.94
75036;BME280;64247;51.540;5.854;2023-06-14T01:13:55;101125.78;;;13.13;75.83
75036;BME280;64247;51.540;5.854;2023-06-14T01:15:59;101126.16;;;13.12;75.59
75036;BME280;64247;51.540;5.854;2023-06-14T01:18:00;101131.16;;;13.10;75.26
75036;BME280;64247;51.540;5.854;2023-06-14T01:20:05;101136.59;;;13.10;75.37
75036;BME280;64247;51.540;5.854;2023-06-14T01:22:10;71600.94;;;-147.87;100.00
75036;BME280;64247;51.540;5.854;2023-06-14T01:24:11;71600.94;;;-147.87;100.00
75036;BME280;64247;51.540;5.854;2023-06-14T01:26:12;71600.94;;;-147.87;100.00
75036;BME280;64247;51.540;5.854;2023-06-14T01:28:15;71600.94;;;-147.87;100.00
75036;BME280;64247;51.540;5.854;2023-06-14T01:30:17;71600.94;;;-147.87;100.00
75036;BME280;64247;51.540;5.854;2023-06-14T01:32:21;71600.94;;;-147.87;100.00
75036;BME280;64247;51.540;5.854;2023-06-14T01:34:21;71600.94;;;-147.87;100.00
75036;BME280;64247;51.540;5.854;2023-06-14T01:36:27;71600.94;;;-147.87;100.00
75036;BME280;64247;51.540;5.854;2023-06-14T01:38:31;71600.94;;;-147.87;100.00
75036;BME280;64247;51.540;5.854;2023-06-14T01:40:34;71600.94;;;-147.87;100.00
75036;BME280;64247;51.540;5.854;2023-06-14T01:42:36;71600.94;;;-147.87;100.00
75036;BME280;64247;51.540;5.854;2023-06-14T01:44:38;71600.94;;;-147.87;100.00
75036;BME280;64247;51.540;5.854;2023-06-14T01:46:40;71600.94;;;-147.87;100.00
75036;BME280;64247;51.540;5.854;2023-06-14T01:48:42;71600.94;;;-147.87;100.00
75036;BME280;64247;51.540;5.854;2023-06-14T01:50:43;71600.94;;;-147.87;100.00
75036;BME280;64247;51.540;5.854;2023-06-14T01:52:44;71600.94;;;-147.87;100.00
75036;BME280;64247;51.540;5.854;2023-06-14T01:54:45;71600.94;;;-147.87;100.00
75036;BME280;64247;51.540;5.854;2023-06-14T01:56:46;71600.94;;;-147.87;100.00
75036;BME280;64247;51.540;5.854;2023-06-14T01:58:47;71600.94;;;-147.87;100.00
75036;BME280;64247;51.540;5.854;2023-06-14T02:00:48;71600.94;;;-147.87;100.00
75036;BME280;64247;51.540;5.854;2023-06-14T02:02:49;71600.94;;;-147.87;100.00
75036;BME280;64247;51.540;5.854;2023-06-14T02:04:50;71600.94;;;-147.87;100.00
75036;BME280;64247;51.540;5.854;2023-06-14T02:06:51;71600.94;;;-147.87;100.00
75036;BME280;64247;51.540;5.854;2023-06-14T02:08:52;71600.94;;;-147.87;100.00
75036;BME280;64247;51.540;5.854;2023-06-14T02:10:54;71600.94;;;-147.87;100.00
75036;BME280;64247;51.540;5.854;2023-06-14T02:12:56;71600.94;;;-147.87;100.00
75036;BME280;64247;51.540;5.854;2023-06-14T02:14:56;71600.94;;;-147.87;100.00
75036;BME280;64247;51.540;5.854;2023-06-14T02:16:58;71600.94;;;-147.87;100.00
75036;BME280;64247;51.540;5.854;2023-06-14T02:18:59;71600.94;;;-147.87;100.00
75036;BME280;64247;51.540;5.854;2023-06-14T02:20:59;71600.94;;;-147.87;100.00
75036;BME280;64247;51.540;5.854;2023-06-14T02:23:00;71600.94;;;-147.87;100.00
75036;BME280;64247;51.540;5.854;2023-06-14T02:25:02;71600.94;;;-147.87;100.00
75036;BME280;64247;51.540;5.854;2023-06-14T02:27:04;71600.94;;;-147.87;100.00
75036;BME280;64247;51.540;5.854;2023-06-14T02:29:05;71600.94;;;-147.87;100.00
75036;BME280;64247;51.540;5.854;2023-06-14T02:31:06;71600.94;;;-147.87;100.00
75036;BME280;64247;51.540;5.854;2023-06-14T02:33:07;71600.94;;;-147.87;100.00
75036;BME280;64247;51.540;5.854;2023-06-14T02:35:08;71600.94;;;-147.87;100.00
75036;BME280;64247;51.540;5.854;2023-06-14T02:37:09;71600.94;;;-147.87;100.00
75036;BME280;64247;51.540;5.854;2023-06-14T02:39:11;71600.94;;;-147.87;100.00
75036;BME280;64247;51.540;5.854;2023-06-14T02:41:12;71600.94;;;-147.87;100.00
75036;BME280;64247;51.540;5.854;2023-06-14T02:43:13;71600.94;;;-147.87;100.00
75036;BME280;64247;51.540;5.854;2023-06-14T02:45:13;71600.94;;;-147.87;100.00
75036;BME280;64247;51.540;5.854;2023-06-14T02:47:15;71600.94;;;-147.87;100.00
75036;BME280;64247;51.540;5.854;2023-06-14T02:49:18;71600.94;;;-147.87;100.00
75036;BME280;64247;51.540;5.854;2023-06-14T02:51:18;71600.94;;;-147.87;100.00
75036;BME280;64247;51.540;5.854;2023-06-14T02:53:19;71600.94;;;-147.87;100.00
75036;BME280;64247;51.540;5.854;2023-06-14T02:55:21;71600.94;;;-147.87;100.00
75036;BME280;64247;51.540;5.854;2023-06-14T02:57:22;71600.94;;;-147.87;100.00
75036;BME280;64247;51.540;5.854;2023-06-14T02:59:23;71600.94;;;-147.87;100.00
75036;BME280;64247;51.540;5.854;2023-06-14T03:01:27;71600.94;;;-147.87;100.00
75036;BME280;64247;51.540;5.854;2023-06-14T03:03:38;71600.94;;;-147.87;100.00
75036;BME280;64247;51.540;5.854;2023-06-14T03:05:43;71600.94;;;-147.87;100.00
75036;BME280;64247;51.540;5.854;2023-06-14T03:07:48;71600.94;;;-147.87;100.00
75036;BME280;64247;51.540;5.854;2023-06-14T03:09:51;71600.94;;;-147.87;100.00
75036;BME280;64247;51.540;5.854;2023-06-14T03:11:53;71600.94;;;-147.87;100.00
75036;BME280;64247;51.540;5.854;2023-06-14T03:13:54;71600.94;;;-147.87;100.00
75036;BME280;64247;51.540;5.854;2023-06-14T03:15:56;71600.94;;;-147.87;100.00
75036;BME280;64247;51.540;5.854;2023-06-14T03:17:57;71600.94;;;-147.87;100.00
75036;BME280;64247;51.540;5.854;2023-06-14T03:20:00;71600.94;;;-147.87;100.00
75036;BME280;64247;51.540;5.854;2023-06-14T03:22:01;71600.94;;;-147.87;100.00
75036;BME280;64247;51.540;5.854;2023-06-14T03:24:05;71600.94;;;-147.87;100.00
75036;BME280;64247;51.540;5.854;2023-06-14T03:26:07;71600.94;;;-147.87;100.00
75036;BME280;64247;51.540;5.854;2023-06-14T03:28:08;71600.94;;;-147.87;100.00
75036;BME280;64247;51.540;5.854;2023-06-14T03:30:09;71600.94;;;-147.87;100.00
75036;BME280;64247;51.540;5.854;2023-06-14T03:32:10;71600.94;;;-147.87;100.00
75036;BME280;64247;51.540;5.854;2023-06-14T03:34:14;71600.94;;;-147.87;100.00
75036;BME280;64247;51.540;5.854;2023-06-14T03:36:16;71600.94;;;-147.87;100.00
75036;BME280;64247;51.540;5.854;2023-06-14T03:38:18;71600.94;;;-147.87;100.00
75036;BME280;64247;51.540;5.854;2023-06-14T03:40:20;71600.94;;;-147.87;100.00
75036;BME280;64247;51.540;5.854;2023-06-14T03:42:25;71600.94;;;-147.87;100.00
75036;BME280;64247;51.540;5.854;2023-06-14T03:44:27;71600.94;;;-147.87;100.00
75036;BME280;64247;51.540;5.854;2023-06-14T03:46:28;71600.94;;;-147.87;100.00
75036;BME280;64247;51.540;5.854;2023-06-14T03:48:29;71600.94;;;-147.87;100.00
75036;BME280;64247;51.540;5.854;2023-06-14T03:50:30;71600.94;;;-147.87;100.00
75036;BME280;64247;51.540;5.854;2023-06-14T03:52:33;71600.94;;;-147.87;100.00
75036;BME280;64247;51.540;5.854;2023-06-14T03:54:34;71600.94;;;-147.87;100.00
75036;BME280;64247;51.540;5.854;2023-06-14T03:56:35;71600.94;;;-147.87;100.00
75036;BME280;64247;51.540;5.854;2023-06-14T03:58:36;71600.94;;;-147.87;100.00
75036;BME280;64247;51.540;5.854;2023-06-14T04:00:38;71600.94;;;-147.87;100.00
75036;BME280;64247;51.540;5.854;2023-06-14T04:02:39;71600.94;;;-147.87;100.00
75036;BME280;64247;51.540;5.854;2023-06-14T04:04:39;71600.94;;;-147.87;100.00
75036;BME280;64247;51.540;5.854;2023-06-14T04:06:44;71600.94;;;-147.87;100.00
75036;BME280;64247;51.540;5.854;2023-06-14T04:08:48;71600.94;;;-147.87;100.00
75036;BME280;64247;51.540;5.854;2023-06-14T04:10:49;71600.94;;;-147.87;100.00
75036;BME280;64247;51.540;5.854;2023-06-14T04:12:50;71600.94;;;-147.87;100.00
75036;BME280;64247;51.540;5.854;2023-06-14T04:14:52;71600.94;;;-147.87;100.00
75036;BME280;64247;51.540;5.854;2023-06-14T04:16:53;71600.94;;;-147.87;100.00
75036;BME280;64247;51.540;5.854;2023-06-14T04:18:55;71600.94;;;-147.87;100.00
75036;BME280;64247;51.540;5.854;2023-06-14T04:20:58;71600.94;;;-147.87;100.00
75036;BME280;64247;51.540;5.854;2023-06-14T04:23:11;71600.94;;;-147.87;100.00
75036;BME280;64247;51.540;5.854;2023-06-14T04:25:13;71600.94;;;-147.87;100.00
75036;BME280;64247;51.540;5.854;2023-06-14T04:27:17;71600.94;;;-147.87;100.00
75036;BME280;64247;51.540;5.854;2023-06-14T04:29:22;71600.94;;;-147.87;100.00
75036;BME280;64247;51.540;5.854;2023-06-14T04:31:31;71600.94;;;-147.87;100.00
75036;BME280;64247;51.540;5.854;2023-06-14T04:33:39;71600.94;;;-147.87;100.00
75036;BME280;64247;51.540;5.854;2023-06-14T04:35:47;71600.94;;;-147.87;100.00
75036;BME280;64247;51.540;5.854;2023-06-14T04:37:49;71600.94;;;-147.87;100.00
75036;BME280;64247;51.540;5.854;2023-06-14T04:39:50;71600.94;;;-147.87;100.00
75036;BME280;64247;51.540;5.854;2023-06-14T04:41:52;71600.94;;;-147.87;100.00
75036;BME280;64247;51.540;5.854;2023-06-14T04:43:58;71600.94;;;-147.87;100.00
75036;BME280;64247;51.540;5.854;2023-06-14T04:46:05;71600.94;;;-147.87;100.00
75036;BME280;64247;51.540;5.854;2023-06-14T04:48:11;71600.94;;;-147.87;100.00
75036;BME280;64247;51.540;5.854;2023-06-14T04:50:15;71600.94;;;-147.87;100.00
75036;BME280;64247;51.540;5.854;2023-06-14T04:52:17;71600.94;;;-147.87;100.00
75036;BME280;64247;51.540;5.854;2023-06-14T04:54:21;71600.94;;;-147.87;100.00
75036;BME280;64247;51.540;5.854;2023-06-14T04:56:22;71600.94;;;-147.87;100.00
75036;BME280;64247;51.540;5.854;2023-06-14T04:58:24;71600.94;;;-147.87;100.00
75036;BME280;64247;51.540;5.854;2023-06-14T05:00:26;71600.94;;;-147.87;100.00
75036;BME280;64247;51.540;5.854;2023-06-14T05:02:27;71600.94;;;-147.87;100.00
75036;BME280;64247;51.540;5.854;2023-06-14T05:04:29;71600.94;;;-147.87;100.00
75036;BME280;64247;51.540;5.854;2023-06-14T05:06:31;71600.94;;;-147.87;100.00
75036;BME280;64247;51.540;5.854;2023-06-14T05:08:32;71600.94;;;-147.87;100.00
75036;BME280;64247;51.540;5.854;2023-06-14T05:10:33;71600.94;;;-147.87;100.00
75036;BME280;64247;51.540;5.854;2023-06-14T05:12:36;71600.94;;;-147.87;100.00
75036;BME280;64247;51.540;5.854;2023-06-14T05:14:39;71600.94;;;-147.87;100.00
75036;BME280;64247;51.540;5.854;2023-06-14T05:16:41;71600.94;;;-147.87;100.00
75036;BME280;64247;51.540;5.854;2023-06-14T05:18:42;71600.94;;;-147.87;100.00
75036;BME280;64247;51.540;5.854;2023-06-14T05:20:42;71600.94;;;-147.87;100.00
75036;BME280;64247;51.540;5.854;2023-06-14T05:22:43;71600.94;;;-147.87;100.00
75036;BME280;64247;51.540;5.854;2023-06-14T05:24:44;71600.94;;;-147.87;100.00
75036;BME280;64247;51.540;5.854;2023-06-14T05:26:45;71600.94;;;-147.87;100.00
75036;BME280;64247;51.540;5.854;2023-06-14T05:28:46;71600.94;;;-147.87;100.00
75036;BME280;64247;51.540;5.854;2023-06-14T05:30:47;71600.94;;;-147.87;100.00
75036;BME280;64247;51.540;5.854;2023-06-14T05:32:47;71600.94;;;-147.87;100.00
75036;BME280;64247;51.540;5.854;2023-06-14T05:34:48;71600.94;;;-147.87;100.00
75036;BME280;64247;51.540;5.854;2023-06-14T05:36:49;71600.94;;;-147.87;100.00
75036;BME280;64247;51.540;5.854;2023-06-14T05:38:50;71600.94;;;-147.87;100.00
75036;BME280;64247;51.540;5.854;2023-06-14T05:40:51;71600.94;;;-147.87;100.00
75036;BME280;64247;51.540;5.854;2023-06-14T05:42:52;71600.94;;;-147.87;100.00
75036;BME280;64247;51.540;5.854;2023-06-14T05:44:53;71600.94;;;-147.87;100.00
75036;BME280;64247;51.540;5.854;2023-06-14T05:46:53;71600.94;;;-147.87;100.00
75036;BME280;64247;51.540;5.854;2023-06-14T05:48:55;71600.94;;;-147.87;100.00
75036;BME280;64247;51.540;5.854;2023-06-14T05:50:56;71600.94;;;-147.87;100.00
75036;BME280;64247;51.540;5.854;2023-06-14T05:52:56;71600.94;;;-147.87;100.00
75036;BME280;64247;51.540;5.854;2023-06-14T05:54:57;71600.94;;;-147.87;100.00
75036;BME280;64247;51.540;5.854;2023-06-14T05:56:58;71600.94;;;-147.87;100.00
75036;BME280;64247;51.540;5.854;2023-06-14T05:59:01;71600.94;;;-147.87;100.00
75036;BME280;64247;51.540;5.854;2023-06-14T06:01:02;71600.94;;;-147.87;100.00
75036;BME280;64247;51.540;5.854;2023-06-14T06:03:03;71600.94;;;-147.87;100.00
75036;BME280;64247;51.540;5.854;2023-06-14T06:05:05;71600.94;;;-147.87;100.00
75036;BME280;64247;51.540;5.854;2023-06-14T06:07:06;71600.94;;;-147.87;100.00
75036;BME280;64247;51.540;5.854;2023-06-14T06:09:07;71600.94;;;-147.87;100.00
75036;BME280;64247;51.540;5.854;2023-06-14T06:11:08;71600.94;;;-147.87;100.00
75036;BME280;64247;51.540;5.854;2023-06-14T06:13:09;71600.94;;;-147.87;100.00
75036;BME280;64247;51.540;5.854;2023-06-14T06:15:10;71600.94;;;-147.87;100.00
75036;BME280;64247;51.540;5.854;2023-06-14T06:17:14;71600.94;;;-147.87;100.00
75036;BME280;64247;51.540;5.854;2023-06-14T06:19:15;71600.94;;;-147.87;100.00
75036;BME280;64247;51.540;5.854;2023-06-14T06:21:16;71600.94;;;-147.87;100.00
75036;BME280;64247;51.540;5.854;2023-06-14T06:23:17;71600.94;;;-147.87;100.00
75036;BME280;64247;51.540;5.854;2023-06-14T06:25:17;71600.94;;;-147.87;100.00
75036;BME280;64247;51.540;5.854;2023-06-14T06:27:19;71600.94;;;-147.87;100.00
75036;BME280;64247;51.540;5.854;2023-06-14T06:29:20;71600.94;;;-147.87;100.00
75036;BME280;64247;51.540;5.854;2023-06-14T06:31:21;71600.94;;;-147.87;100.00
75036;BME280;64247;51.540;5.854;2023-06-14T06:33:22;71600.94;;;-147.87;100.00
75036;BME280;64247;51.540;5.854;2023-06-14T06:35:24;71600.94;;;-147.87;100.00
75036;BME280;64247;51.540;5.854;2023-06-14T06:37:25;71600.94;;;-147.87;100.00
75036;BME280;64247;51.540;5.854;2023-06-14T06:39:26;71600.94;;;-147.87;100.00
75036;BME280;64247;51.540;5.854;2023-06-14T06:41:26;71600.94;;;-147.87;100.00
75036;BME280;64247;51.540;5.854;2023-06-14T06:43:27;71600.94;;;-147.87;100.00
75036;BME280;64247;51.540;5.854;2023-06-14T06:45:31;71600.94;;;-147.87;100.00
75036;BME280;64247;51.540;5.854;2023-06-14T06:47:31;71600.94;;;-147.87;100.00
75036;BME280;64247;51.540;5.854;2023-06-14T06:49:32;71600.94;;;-147.87;100.00
75036;BME280;64247;51.540;5.854;2023-06-14T06:51:35;71600.94;;;-147.87;100.00
75036;BME280;64247;51.540;5.854;2023-06-14T06:53:36;71600.94;;;-147.87;100.00
75036;BME280;64247;51.540;5.854;2023-06-14T06:55:37;71600.94;;;-147.87;100.00
75036;BME280;64247;51.540;5.854;2023-06-14T06:57:38;71600.94;;;-147.87;100.00
75036;BME280;64247;51.540;5.854;2023-06-14T06:59:39;71600.94;;;-147.87;100.00
75036;BME280;64247;51.540;5.854;2023-06-14T07:01:39;71600.94;;;-147.87;100.00
75036;BME280;64247;51.540;5.854;2023-06-14T07:03:40;71600.94;;;-147.87;100.00
75036;BME280;64247;51.540;5.854;2023-06-14T07:05:41;71600.94;;;-147.87;100.00
75036;BME280;64247;51.540;5.854;2023-06-14T07:07:42;71600.94;;;-147.87;100.00
75036;BME280;64247;51.540;5.854;2023-06-14T07:09:42;71600.94;;;-147.87;100.00
75036;BME280;64247;51.540;5.854;2023-06-14T07:11:44;71600.94;;;-147.87;100.00
75036;BME280;64247;51.540;5.854;2023-06-14T07:13:45;71600.94;;;-147.87;100.00
75036;BME280;64247;51.540;5.854;2023-06-14T07:15:46;71600.94;;;-147.87;100.00
75036;BME280;64247;51.540;5.854;2023-06-14T07:17:47;71600.94;;;-147.87;100.00
75036;BME280;64247;51.540;5.854;2023-06-14T07:19:48;71600.94;;;-147.87;100.00
75036;BME280;64247;51.540;5.854;2023-06-14T07:21:50;71600.94;;;-147.87;100.00
75036;BME280;64247;51.540;5.854;2023-06-14T07:23:53;71600.94;;;-147.87;100.00
75036;BME280;64247;51.540;5.854;2023-06-14T07:25:54;71600.94;;;-147.87;100.00
75036;BME280;64247;51.540;5.854;2023-06-14T07:27:55;71600.94;;;-147.87;100.00
75036;BME280;64247;51.540;5.854;2023-06-14T07:29:55;71600.94;;;-147.87;100.00
75036;BME280;64247;51.540;5.854;2023-06-14T07:31:56;71600.94;;;-147.87;100.00
75036;BME280;64247;51.540;5.854;2023-06-14T07:33:57;71600.94;;;-147.87;100.00
75036;BME280;64247;51.540;5.854;2023-06-14T07:35:57;71600.94;;;-147.87;100.00
75036;BME280;64247;51.540;5.854;2023-06-14T07:37:58;71600.94;;;-147.87;100.00
75036;BME280;64247;51.540;5.854;2023-06-14T07:39:59;71600.94;;;-147.87;100.00
75036;BME280;64247;51.540;5.854;2023-06-14T07:42:00;71600.94;;;-147.87;100.00
75036;BME280;64247;51.540;5.854;2023-06-14T07:44:00;71600.94;;;-147.87;100.00
75036;BME280;64247;51.540;5.854;2023-06-14T07:46:01;71600.94;;;-147.87;100.00
75036;BME280;64247;51.540;5.854;2023-06-14T07:48:03;71600.94;;;-147.87;100.00
75036;BME280;64247;51.540;5.854;2023-06-14T07:50:04;71600.94;;;-147.87;100.00
75036;BME280;64247;51.540;5.854;2023-06-14T07:52:07;71600.94;;;-147.87;100.00
75036;BME280;64247;51.540;5.854;2023-06-14T07:54:07;71600.94;;;-147.87;100.00
75036;BME280;64247;51.540;5.854;2023-06-14T07:56:08;71600.94;;;-147.87;100.00
75036;BME280;64247;51.540;5.854;2023-06-14T07:58:09;71600.94;;;-147.87;100.00
75036;BME280;64247;51.540;5.854;2023-06-14T08:00:11;71600.94;;;-147.87;100.00
75036;BME280;64247;51.540;5.854;2023-06-14T08:02:15;71600.94;;;-147.87;100.00
75036;BME280;64247;51.540;5.854;2023-06-14T08:04:16;71600.94;;;-147.87;100.00
75036;BME280;64247;51.540;5.854;2023-06-14T08:06:17;71600.94;;;-147.87;100.00
75036;BME280;64247;51.540;5.854;2023-06-14T08:08:18;71600.94;;;-147.87;100.00
75036;BME280;64247;51.540;5.854;2023-06-14T08:10:18;71600.94;;;-147.87;100.00
75036;BME280;64247;51.540;5.854;2023-06-14T08:12:19;71600.94;;;-147.87;100.00
75036;BME280;64247;51.540;5.854;2023-06-14T08:14:20;71600.94;;;-147.87;100.00
75036;BME280;64247;51.540;5.854;2023-06-14T08:16:21;71600.94;;;-147.87;100.00
75036;BME280;64247;51.540;5.854;2023-06-14T08:18:22;71600.94;;;-147.87;100.00
75036;BME280;64247;51.540;5.854;2023-06-14T08:20:22;71600.94;;;-147.87;100.00
75036;BME280;64247;51.540;5.854;2023-06-14T08:22:24;71600.94;;;-147.87;100.00
75036;BME280;64247;51.540;5.854;2023-06-14T08:24:26;71600.94;;;-147.87;100.00
75036;BME280;64247;51.540;5.854;2023-06-14T08:26:30;71600.94;;;-147.87;100.00
75036;BME280;64247;51.540;5.854;2023-06-14T08:28:32;71600.94;;;-147.87;100.00
75036;BME280;64247;51.540;5.854;2023-06-14T08:30:32;71600.94;;;-147.87;100.00
75036;BME280;64247;51.540;5.854;2023-06-14T08:32:33;71600.94;;;-147.87;100.00
75036;BME280;64247;51.540;5.854;2023-06-14T08:34:34;71600.94;;;-147.87;100.00
75036;BME280;64247;51.540;5.854;2023-06-14T08:36:35;71600.94;;;-147.87;100.00
75036;BME280;64247;51.540;5.854;2023-06-14T08:38:36;71600.94;;;-147.87;100.00
75036;BME280;64247;51.540;5.854;2023-06-14T08:40:37;71600.94;;;-147.87;100.00
75036;BME280;64247;51.540;5.854;2023-06-14T08:42:40;71600.94;;;-147.87;100.00
75036;BME280;64247;51.540;5.854;2023-06-14T08:44:41;71600.94;;;-147.87;100.00
75036;BME280;64247;51.540;5.854;2023-06-14T08:46:42;71600.94;;;-147.87;100.00
75036;BME280;64247;51.540;5.854;2023-06-14T08:48:43;71600.94;;;-147.87;100.00
75036;BME280;64247;51.540;5.854;2023-06-14T08:50:44;71600.94;;;-147.87;100.00
75036;BME280;64247;51.540;5.854;2023-06-14T08:52:48;71600.94;;;-147.87;100.00
75036;BME280;64247;51.540;5.854;2023-06-14T08:54:53;71600.94;;;-147.87;100.00
75036;BME280;64247;51.540;5.854;2023-06-14T08:56:54;71600.94;;;-147.87;100.00
75036;BME280;64247;51.540;5.854;2023-06-14T08:58:58;71600.94;;;-147.87;100.00
75036;BME280;64247;51.540;5.854;2023-06-14T09:01:03;71600.94;;;-147.87;100.00
75036;BME280;64247;51.540;5.854;2023-06-14T09:03:05;71600.94;;;-147.87;100.00
75036;BME280;64247;51.540;5.854;2023-06-14T09:05:06;71600.94;;;-147.87;100.00
75036;BME280;64247;51.540;5.854;2023-06-14T09:07:07;71600.94;;;-147.87;100.00
75036;BME280;64247;51.540;5.854;2023-06-14T09:09:07;71600.94;;;-147.87;100.00
75036;BME280;64247;51.540;5.854;2023-06-14T09:11:10;71600.94;;;-147.87;100.00
75036;BME280;64247;51.540;5.854;2023-06-14T09:13:11;71600.94;;;-147.87;100.00
75036;BME280;64247;51.540;5.854;2023-06-14T09:15:12;71600.94;;;-147.87;100.00
75036;BME280;64247;51.540;5.854;2023-06-14T09:17:15;71600.94;;;-147.87;100.00
75036;BME280;64247;51.540;5.854;2023-06-14T09:19:34;71600.94;;;-147.87;100.00
75036;BME280;64247;51.540;5.854;2023-06-14T09:21:37;71600.94;;;-147.87;100.00
75036;BME280;64247;51.540;5.854;2023-06-14T09:23:39;71600.94;;;-147.87;100.00
75036;BME280;64247;51.540;5.854;2023-06-14T09:25:45;71600.94;;;-147.87;100.00
75036;BME280;64247;51.540;5.854;2023-06-14T09:27:47;71600.94;;;-147.87;100.00
75036;BME280;64247;51.540;5.854;2023-06-14T09:29:47;71600.94;;;-147.87;100.00
75036;BME280;64247;51.540;5.854;2023-06-14T09:31:48;71600.94;;;-147.87;100.00
75036;BME280;64247;51.540;5.854;2023-06-14T09:33:50;71600.94;;;-147.87;100.00
75036;BME280;64247;51.540;5.854;2023-06-14T09:35:51;71600.94;;;-147.87;100.00
75036;BME280;64247;51.540;5.854;2023-06-14T09:37:55;71600.94;;;-147.87;100.00
75036;BME280;64247;51.540;5.854;2023-06-14T09:39:56;71600.94;;;-147.87;100.00
75036;BME280;64247;51.540;5.854;2023-06-14T09:41:57;71600.94;;;-147.87;100.00
75036;BME280;64247;51.540;5.854;2023-06-14T09:44:08;71600.94;;;-147.87;100.00
75036;BME280;64247;51.540;5.854;2023-06-14T09:46:09;71600.94;;;-147.87;100.00
75036;BME280;64247;51.540;5.854;2023-06-14T09:48:10;71600.94;;;-147.87;100.00
75036;BME280;64247;51.540;5.854;2023-06-14T09:50:11;71600.94;;;-147.87;100.00
75036;BME280;64247;51.540;5.854;2023-06-14T09:52:17;71600.94;;;-147.87;100.00
75036;BME280;64247;51.540;5.854;2023-06-14T09:54:22;71600.94;;;-147.87;100.00
75036;BME280;64247;51.540;5.854;2023-06-14T09:56:30;71600.94;;;-147.87;100.00
75036;BME280;64247;51.540;5.854;2023-06-14T09:58:33;71600.94;;;-147.87;100.00
75036;BME280;64247;51.540;5.854;2023-06-14T10:00:39;71600.94;;;-147.87;100.00
75036;BME280;64247;51.540;5.854;2023-06-14T10:02:42;71600.94;;;-147.87;100.00
75036;BME280;64247;51.540;5.854;2023-06-14T10:04:53;71600.94;;;-147.87;100.00
75036;BME280;64247;51.540;5.854;2023-06-14T10:06:58;71600.94;;;-147.87;100.00
75036;BME280;64247;51.540;5.854;2023-06-14T10:09:01;71600.94;;;-147.87;100.00
75036;BME280;64247;51.540;5.854;2023-06-14T10:11:04;71600.94;;;-147.87;100.00
75036;BME280;64247;51.540;5.854;2023-06-14T10:13:05;71600.94;;;-147.87;100.00
75036;BME280;64247;51.540;5.854;2023-06-14T10:15:10;71600.94;;;-147.87;100.00
75036;BME280;64247;51.540;5.854;2023-06-14T10:20:10;71600.94;;;-147.87;100.00
75036;BME280;64247;51.540;5.854;2023-06-14T10:22:19;71600.94;;;-147.87;100.00
75036;BME280;64247;51.540;5.854;2023-06-14T10:24:34;71600.94;;;-147.87;100.00
75036;BME280;64247;51.540;5.854;2023-06-14T10:26:59;71600.94;;;-147.87;100.00
75036;BME280;64247;51.540;5.854;2023-06-14T10:29:06;71600.94;;;-147.87;100.00